Billings, MT (59101)

12:13 AM MST on February 08, 2016 (GMT -0700)
Jupiter Sulphur | | Change Station
CLOSE
Current Station
Personal Weather Station
Location: Billings, MT
Elevation: 3114 ft
Nearby Weather Stations

Elev 3114 ft 45.78 °N, 108.49 °W | Updated 12 minutes ago

Partly Cloudy
Partly Cloudy
31.6 °F
Feels Like 28 °F
N
4.0
Wind Variable Wind from NE
Gusts 5.0 mph

Today
High -- | Low -- °F
--% Chance of Precip.
Yesterday
High -- | Low -- °F
Precip. -- in
Pressure 30.52 in
Visibility 10.0 miles
Clouds Mostly Cloudy 7000 ft
Windchill 28 °F
Dew Point 17 °F
Humidity 54%
Rainfall 0.00 in
Snow Depth Not available.
7:27 AM 5:29 PM
Waning Crescent, 0% visible
METAR KBIL 080653Z 01004KT 10SM BKN070 00/M12 A3044 RMK AO2 SLP335 T00001122 400561039
Pressure 30.52 in
Visibility 10.0 miles
Clouds Mostly Cloudy 7000 ft
Windchill 28 °F
Dew Point 17 °F
Humidity 54%
Rainfall 0.00 in
Snow Depth Not available.
7:27 AM 5:29 PM
Waning Crescent, 0% visible
METAR KBIL 080653Z 01004KT 10SM BKN070 00/M12 A3044 RMK AO2 SLP335 T00001122 400561039

10-Day Weather Forecast

Almanac

Astronomy

Feb. 08, 2016 Rise Set
Actual Time
Civil Twilight
Nautical Twilight
Astronomical Twilight
Moon
Length of Visible Light
Length of Day
Tomorrow will be .
, % of the Moon is Illuminated

Today's Extremes

State Highs State Lows

Community

WunderPhotos

Upload Photos

1,891,394 photos uploaded!

WunderBlog® & News

Nearby

Air Quality

  Air Quality AQ Index Pollutant
Not available.

Snow Depth

Station Depth Elevation

Earthquake Activity

City Distance Mag. Time & Date
Minimum magnitude displayed is 2.5.

Coastal Water Temperatures

Place Temperature

Stations

Nearby Weather Stations

Station Location Temp. Windchill Dew Point Humidity Wind Precip. Elev Updated Type
                   

Watches & Warnings

There are currently no watches in effect.